createdAt,value
2022-10-14T00:00:18.321Z,15.57
2022-10-14T00:02:19.971Z,15.43
2022-10-14T00:04:21.645Z,16.33
2022-10-14T00:06:26.468Z,12.17
2022-10-14T00:08:28.062Z,14.57
2022-10-14T00:10:29.743Z,13.47
2022-10-14T00:12:31.706Z,15.03
2022-10-14T00:14:33.333Z,13.57
2022-10-14T00:16:39.316Z,14.07
2022-10-14T00:18:40.960Z,17.77
2022-10-14T00:20:42.475Z,15.70
2022-10-14T00:22:44.199Z,15.20
2022-10-14T00:24:45.858Z,11.97
2022-10-14T00:26:47.535Z,12.77
2022-10-14T00:28:49.919Z,12.80
2022-10-14T00:31:00.503Z,14.70
2022-10-14T00:33:02.250Z,12.30
2022-10-14T00:35:04.207Z,13.83
2022-10-14T00:37:06.065Z,11.40
2022-10-14T00:39:08.217Z,12.23
2022-10-14T00:41:17.168Z,11.40
2022-10-14T00:43:19.821Z,12.33
2022-10-14T00:45:24.243Z,12.03
2022-10-14T00:47:26.015Z,13.03
2022-10-14T00:49:34.503Z,13.57
2022-10-14T00:51:37.329Z,12.53
2022-10-14T00:53:42.467Z,9.37
2022-10-14T00:55:44.281Z,13.43
2022-10-14T00:57:46.155Z,11.20
2022-10-14T00:59:48.029Z,10.70
2022-10-14T01:01:49.860Z,14.97
2022-10-14T01:03:51.787Z,12.23
2022-10-14T01:06:41.381Z,12.33
2022-10-14T01:08:49.691Z,10.60
2022-10-14T01:10:56.104Z,16.87
2022-10-14T01:13:14.300Z,15.40
2022-10-14T01:15:36.875Z,11.27
2022-10-14T01:17:57.321Z,16.67
2022-10-14T01:20:23.135Z,16.27
2022-10-14T01:22:58.599Z,15.37
2022-10-14T01:25:08.920Z,15.07
2022-10-14T01:27:42.805Z,14.73
2022-10-14T01:30:03.222Z,13.83
2022-10-14T01:32:13.096Z,13.70
2022-10-14T01:34:23.680Z,14.73
2022-10-14T01:36:57.195Z,15.90
2022-10-14T01:39:11.236Z,16.43
2022-10-14T01:41:22.204Z,16.13
2022-10-14T01:43:27.546Z,13.77
2022-10-14T01:45:32.283Z,18.00
2022-10-14T01:47:36.173Z,16.90
2022-10-14T01:50:02.018Z,16.73
2022-10-14T01:52:20.336Z,15.50
2022-10-14T01:54:30.909Z,14.57
2022-10-14T01:56:37.071Z,13.87
2022-10-14T01:58:43.775Z,18.37
2022-10-14T02:00:47.899Z,16.50
2022-10-14T02:02:49.728Z,17.90
2022-10-14T02:04:51.796Z,17.07
2022-10-14T02:07:28.797Z,18.10
2022-10-14T02:09:45.213Z,19.37
2022-10-14T02:12:04.444Z,16.80
2022-10-14T02:14:43.435Z,18.23
2022-10-14T02:16:54.110Z,16.87
2022-10-14T02:19:08.326Z,15.57
2022-10-14T02:21:22.273Z,14.93
2022-10-14T02:23:30.278Z,16.90
2022-10-14T02:25:37.125Z,19.20
2022-10-14T02:27:39.931Z,18.60
2022-10-14T02:29:45.673Z,16.60
2022-10-14T02:31:48.242Z,16.80
2022-10-14T02:33:56.633Z,20.73
2022-10-14T02:35:58.790Z,16.93
2022-10-14T02:38:02.315Z,15.33
2022-10-14T02:40:07.753Z,14.97
2022-10-14T02:42:09.634Z,16.00
2022-10-14T02:44:11.257Z,15.17
2022-10-14T02:46:13.406Z,16.87
2022-10-14T02:48:15.122Z,18.83
2022-10-14T02:50:19.057Z,17.10
2022-10-14T02:52:21.237Z,20.50
2022-10-14T02:54:23.081Z,17.30
2022-10-14T02:56:24.951Z,16.67
2022-10-14T02:58:26.567Z,15.30
2022-10-14T03:00:28.315Z,16.87
2022-10-14T03:02:29.918Z,15.00
2022-10-14T03:04:31.571Z,18.83
2022-10-14T03:06:33.179Z,13.87
2022-10-14T03:08:34.850Z,15.33
2022-10-14T03:10:36.512Z,19.73
2022-10-14T03:12:38.158Z,14.00
2022-10-14T03:14:39.803Z,17.60
2022-10-14T03:16:41.467Z,16.03
2022-10-14T03:18:43.147Z,13.83
2022-10-14T03:20:45.527Z,16.43
2022-10-14T03:22:47.143Z,16.83
2022-10-14T03:24:48.750Z,18.10
2022-10-14T03:26:50.470Z,15.03
2022-10-14T03:28:52.149Z,17.20
2022-10-14T03:30:53.855Z,17.83
2022-10-14T03:32:55.438Z,19.20
2022-10-14T03:34:57.829Z,18.87
2022-10-14T03:36:59.404Z,16.03
2022-10-14T03:39:01.053Z,15.40
2022-10-14T03:41:02.939Z,16.50
2022-10-14T03:43:04.601Z,20.23
2022-10-14T03:45:06.847Z,17.10
2022-10-14T03:47:08.453Z,18.87
2022-10-14T03:49:10.075Z,15.33
2022-10-14T03:51:11.806Z,17.67
2022-10-14T03:53:13.657Z,17.77
2022-10-14T03:55:15.318Z,17.50
2022-10-14T03:57:16.932Z,16.83
2022-10-14T03:59:18.749Z,16.43
2022-10-14T04:01:20.368Z,17.97
2022-10-14T04:03:22.029Z,13.90
2022-10-14T04:05:23.733Z,16.37
2022-10-14T04:07:25.484Z,15.53
2022-10-14T04:09:29.034Z,16.43
2022-10-14T04:11:30.755Z,16.67
2022-10-14T04:13:32.637Z,21.93
2022-10-14T04:15:36.147Z,16.00
2022-10-14T04:17:37.814Z,19.67
2022-10-14T04:19:39.532Z,15.23
2022-10-14T04:21:41.316Z,14.13
2022-10-14T04:23:42.954Z,14.63
2022-10-14T04:25:44.551Z,15.87
2022-10-14T04:27:46.388Z,12.23
2022-10-14T04:29:48.122Z,17.13
2022-10-14T04:31:49.762Z,14.37
2022-10-14T04:33:51.535Z,12.87
2022-10-14T04:36:04.057Z,15.80
2022-10-14T04:38:05.644Z,16.43
2022-10-14T04:40:07.605Z,14.90
2022-10-14T04:42:09.537Z,15.53
2022-10-14T04:44:11.136Z,16.33
2022-10-14T04:46:12.746Z,15.90
2022-10-14T04:48:14.944Z,13.70
2022-10-14T04:50:17.690Z,15.40
2022-10-14T04:52:19.562Z,12.83
2022-10-14T04:54:21.512Z,14.33
2022-10-14T04:56:23.441Z,16.97
2022-10-14T04:58:25.056Z,17.53
2022-10-14T05:00:26.658Z,15.60
2022-10-14T05:02:28.249Z,15.70
2022-10-14T05:04:29.873Z,15.73
2022-10-14T05:06:32.497Z,14.13
2022-10-14T05:08:34.170Z,15.73
2022-10-14T05:10:36.095Z,15.60
2022-10-14T05:12:39.090Z,13.80
2022-10-14T05:14:40.749Z,14.17
2022-10-14T05:16:42.421Z,17.60
2022-10-14T05:18:43.997Z,15.70
2022-10-14T05:20:45.735Z,15.40
2022-10-14T05:22:47.444Z,14.40
2022-10-14T05:24:49.145Z,12.87
2022-10-14T05:26:51.471Z,14.27
2022-10-14T05:28:53.117Z,15.30
2022-10-14T05:30:55.542Z,15.73
2022-10-14T05:32:57.163Z,19.57
2022-10-14T05:34:58.947Z,15.03
2022-10-14T05:37:00.682Z,19.00
2022-10-14T05:39:02.276Z,19.57
2022-10-14T05:41:04.275Z,16.27
2022-10-14T05:43:06.870Z,16.73
2022-10-14T05:45:08.667Z,21.17
2022-10-14T05:47:10.730Z,15.57
2022-10-14T05:49:12.400Z,19.43
2022-10-14T05:51:15.535Z,18.40
2022-10-14T05:53:17.295Z,21.30
2022-10-14T05:55:18.934Z,18.67
2022-10-14T05:57:20.527Z,17.90
2022-10-14T05:59:22.416Z,18.00
2022-10-14T06:01:24.066Z,15.90
2022-10-14T06:03:25.775Z,17.53
2022-10-14T06:05:27.462Z,15.93
2022-10-14T06:07:29.018Z,18.87
2022-10-14T06:09:31.504Z,15.40
2022-10-14T06:11:33.136Z,14.43
2022-10-14T06:13:35.576Z,16.97
2022-10-14T06:15:37.287Z,15.90
2022-10-14T06:17:39.003Z,15.83
2022-10-14T06:19:40.629Z,16.57
2022-10-14T06:21:42.304Z,15.40
2022-10-14T06:23:43.883Z,16.23
2022-10-14T06:25:45.641Z,17.33
2022-10-14T06:27:47.462Z,15.03
2022-10-14T06:29:49.194Z,15.67
2022-10-14T06:31:50.793Z,16.90
2022-10-14T06:33:52.388Z,16.30
2022-10-14T06:35:53.979Z,17.73
2022-10-14T06:37:55.663Z,16.90
2022-10-14T06:39:57.341Z,15.70
2022-10-14T06:41:59.073Z,19.03
2022-10-14T06:44:00.822Z,20.80
2022-10-14T06:46:03.507Z,17.00
2022-10-14T06:48:05.459Z,14.80
2022-10-14T06:50:07.658Z,16.40
2022-10-14T06:52:09.579Z,19.20
2022-10-14T06:54:11.228Z,15.33
2022-10-14T06:56:12.950Z,17.80
2022-10-14T06:58:14.542Z,17.23
2022-10-14T07:00:16.826Z,17.07
2022-10-14T07:02:18.442Z,16.23
2022-10-14T07:04:20.018Z,14.40
2022-10-14T07:06:21.601Z,18.67
2022-10-14T07:08:23.256Z,16.87
2022-10-14T07:10:25.065Z,21.93
2022-10-14T07:12:27.343Z,18.70
2022-10-14T07:14:28.952Z,17.40
2022-10-14T07:16:30.762Z,16.33
2022-10-14T07:18:32.574Z,20.90
2022-10-14T07:20:34.684Z,18.80
2022-10-14T07:22:38.787Z,18.27
2022-10-14T07:24:40.827Z,25.33
2022-10-14T07:26:42.603Z,21.07
2022-10-14T07:28:44.339Z,24.33
2022-10-14T07:30:46.072Z,21.17
2022-10-14T07:32:47.668Z,17.90
2022-10-14T07:34:49.246Z,17.90
2022-10-14T07:36:50.873Z,19.97
2022-10-14T07:38:52.453Z,19.23
2022-10-14T07:41:02.505Z,20.77
2022-10-14T07:43:04.152Z,17.67
2022-10-14T07:45:06.971Z,23.70
2022-10-14T07:47:08.685Z,17.73
2022-10-14T07:49:20.378Z,17.23
2022-10-14T07:51:22.115Z,16.77
2022-10-14T07:53:25.034Z,22.83
2022-10-14T07:55:26.664Z,18.83
2022-10-14T07:57:28.668Z,19.67
2022-10-14T07:59:30.343Z,18.07
2022-10-14T08:01:32.045Z,18.03
2022-10-14T08:03:33.671Z,15.33
2022-10-14T08:05:38.653Z,14.40
2022-10-14T08:07:40.637Z,19.77
2022-10-14T08:09:42.330Z,19.83
2022-10-14T08:11:45.233Z,21.27
2022-10-14T08:13:46.936Z,17.63
2022-10-14T08:15:48.508Z,17.27
2022-10-14T08:17:50.193Z,18.10
2022-10-14T08:19:51.771Z,15.43
2022-10-14T08:21:53.658Z,17.10
2022-10-14T08:23:55.506Z,20.63
2022-10-14T08:25:57.093Z,20.23
2022-10-14T08:27:58.964Z,16.57
2022-10-14T08:30:00.520Z,16.77
2022-10-14T08:32:02.159Z,16.07
2022-10-14T08:34:03.835Z,21.50
2022-10-14T08:36:05.757Z,17.77
2022-10-14T08:38:07.420Z,16.27
2022-10-14T08:40:16.267Z,15.77
2022-10-14T08:42:39.559Z,16.70
2022-10-14T08:44:41.638Z,19.43
2022-10-14T08:46:51.217Z,17.43
2022-10-14T08:49:03.259Z,14.33
2022-10-14T08:51:10.247Z,18.03
2022-10-14T08:53:19.869Z,17.67
2022-10-14T08:55:30.268Z,15.10
2022-10-14T08:57:51.999Z,15.47
2022-10-14T08:59:54.622Z,15.07
2022-10-14T09:02:24.151Z,15.40
2022-10-14T09:04:26.064Z,14.43
2022-10-14T09:06:30.461Z,14.20
2022-10-14T09:08:45.634Z,11.93
2022-10-14T09:10:47.616Z,16.77
2022-10-14T09:12:51.022Z,12.17
2022-10-14T09:15:19.048Z,14.67
2022-10-14T09:17:26.929Z,15.47
2022-10-14T09:19:33.228Z,14.80
2022-10-14T09:21:52.147Z,15.47
2022-10-14T09:24:12.483Z,14.63
2022-10-14T09:26:19.648Z,18.23
2022-10-14T09:28:25.033Z,16.03
2022-10-14T09:30:38.073Z,15.47
2022-10-14T09:32:49.110Z,12.80
2022-10-14T09:34:52.363Z,13.83
2022-10-14T09:36:53.964Z,13.93
2022-10-14T09:38:56.351Z,13.67
2022-10-14T09:41:00.959Z,12.37
2022-10-14T09:43:08.582Z,11.50
2022-10-14T09:45:14.560Z,14.27
2022-10-14T09:47:19.151Z,12.67
2022-10-14T09:49:28.530Z,12.33
2022-10-14T09:51:33.800Z,12.87
2022-10-14T09:53:45.384Z,15.13
2022-10-14T09:55:49.463Z,14.07
2022-10-14T09:58:27.143Z,11.50
2022-10-14T10:00:30.541Z,13.67
2022-10-14T10:02:45.218Z,9.47
2022-10-14T10:04:47.818Z,10.50
2022-10-14T10:06:55.070Z,9.43
2022-10-14T10:09:00.155Z,10.27
2022-10-14T10:11:10.480Z,11.23
2022-10-14T10:13:27.813Z,10.17
2022-10-14T10:15:29.798Z,8.97
2022-10-14T10:17:38.625Z,8.37
2022-10-14T10:19:52.802Z,11.70
2022-10-14T10:21:55.473Z,11.90
2022-10-14T10:24:00.131Z,9.17
2022-10-14T10:26:26.051Z,12.93
2022-10-14T10:28:32.990Z,10.60
2022-10-14T10:31:05.109Z,9.77
2022-10-14T10:33:15.573Z,9.40
2022-10-14T10:35:29.770Z,10.17
2022-10-14T10:37:56.927Z,8.67
2022-10-14T10:40:22.865Z,10.37
2022-10-14T10:42:27.727Z,10.17
2022-10-14T10:44:41.415Z,12.60
2022-10-14T10:47:02.543Z,7.27
2022-10-14T10:49:18.541Z,10.07
2022-10-14T10:51:34.735Z,7.40
2022-10-14T10:53:43.808Z,8.07
2022-10-14T10:56:12.178Z,12.67
2022-10-14T10:58:35.475Z,8.73
2022-10-14T11:03:46.190Z,8.43
2022-10-14T11:05:56.743Z,8.43
2022-10-14T11:08:23.245Z,6.57
2022-10-14T11:10:58.259Z,9.43
2022-10-14T11:13:35.993Z,5.13
2022-10-14T11:15:55.675Z,7.70
2022-10-14T11:18:14.533Z,8.23
2022-10-14T11:20:45.598Z,7.60
2022-10-14T11:22:56.270Z,7.30
2022-10-14T11:25:15.353Z,8.93
2022-10-14T11:27:39.820Z,7.63
2022-10-14T11:30:02.856Z,8.90
2022-10-14T11:32:16.360Z,7.87
2022-10-14T11:34:36.825Z,9.40
2022-10-14T11:36:49.585Z,7.87
2022-10-14T11:38:53.945Z,8.30
2022-10-14T11:41:05.055Z,7.53
2022-10-14T11:43:13.591Z,7.87
2022-10-14T11:45:46.873Z,9.60
2022-10-14T11:47:52.928Z,10.43
2022-10-14T11:49:58.511Z,9.97
2022-10-14T11:52:07.786Z,7.90
2022-10-14T11:54:42.640Z,9.23
2022-10-14T11:56:53.132Z,8.20
2022-10-14T11:58:59.324Z,9.80
2022-10-14T12:01:04.226Z,7.43
2022-10-14T12:03:19.652Z,9.23
2022-10-14T12:05:39.454Z,8.80
2022-10-14T12:08:04.553Z,8.10
2022-10-14T12:10:26.951Z,9.23
2022-10-14T12:12:30.447Z,7.47
2022-10-14T12:14:39.678Z,6.97
2022-10-14T12:16:44.288Z,7.47
2022-10-14T12:18:50.518Z,6.93
2022-10-14T12:20:55.778Z,10.07
2022-10-14T12:22:58.593Z,6.50
2022-10-14T12:25:10.871Z,6.70
2022-10-14T12:27:14.535Z,8.10
2022-10-14T12:29:20.684Z,7.30
2022-10-14T12:31:23.221Z,8.17
2022-10-14T12:33:24.829Z,6.37
2022-10-14T12:35:59.618Z,8.77
2022-10-14T12:38:04.026Z,8.63
2022-10-14T12:40:06.813Z,8.47
2022-10-14T12:42:13.270Z,8.30
2022-10-14T12:44:18.856Z,6.03
2022-10-14T12:46:20.559Z,7.37
2022-10-14T12:48:27.557Z,6.93
2022-10-14T12:50:34.671Z,10.87
2022-10-14T12:52:38.581Z,6.63
2022-10-14T12:54:47.764Z,5.77
2022-10-14T12:57:03.565Z,6.87
2022-10-14T12:59:09.231Z,7.03
2022-10-14T13:01:21.827Z,7.13
2022-10-14T13:03:32.372Z,10.27
2022-10-14T13:05:37.799Z,8.77
2022-10-14T13:07:47.363Z,9.30
2022-10-14T13:09:58.081Z,8.40
2022-10-14T13:11:59.580Z,8.00
2022-10-14T13:14:02.091Z,5.33
2022-10-14T13:16:04.880Z,7.50
2022-10-14T13:18:34.294Z,8.33
2022-10-14T13:20:35.768Z,8.07
2022-10-14T13:22:39.253Z,9.93
2022-10-14T13:24:44.180Z,10.30
2022-10-14T13:26:54.744Z,10.77
2022-10-14T13:29:22.303Z,10.43
2022-10-14T13:31:54.834Z,7.83
2022-10-14T13:34:16.142Z,9.10
2022-10-14T13:36:37.075Z,7.73
2022-10-14T13:38:41.678Z,6.77
2022-10-14T13:40:50.276Z,6.07
2022-10-14T13:42:56.435Z,7.30
2022-10-14T13:45:13.688Z,6.77
2022-10-14T13:47:29.196Z,5.97
2022-10-14T13:49:37.178Z,7.50
2022-10-14T13:51:47.745Z,8.67
2022-10-14T13:54:10.555Z,8.83
2022-10-14T13:56:21.703Z,7.47
2022-10-14T13:58:24.672Z,5.83
2022-10-14T14:00:41.536Z,6.80
2022-10-14T14:02:46.238Z,8.50
2022-10-14T14:04:57.115Z,8.00
2022-10-14T14:07:06.752Z,8.07
2022-10-14T14:09:23.096Z,7.93
2022-10-14T14:11:27.908Z,7.57
2022-10-14T14:13:45.629Z,7.60
2022-10-14T14:15:53.856Z,8.10
2022-10-14T14:17:55.524Z,7.77
2022-10-14T14:19:57.106Z,11.03
2022-10-14T14:22:21.195Z,8.10
2022-10-14T14:24:25.254Z,9.53
2022-10-14T14:26:35.166Z,7.73
2022-10-14T14:28:36.758Z,7.60
2022-10-14T14:30:39.605Z,8.93
2022-10-14T14:32:41.156Z,10.17
2022-10-14T14:34:45.807Z,9.10
2022-10-14T14:36:51.119Z,12.70
2022-10-14T14:39:01.155Z,8.53
2022-10-14T14:41:04.545Z,9.07
2022-10-14T14:43:06.302Z,12.83
2022-10-14T14:45:15.020Z,8.23
2022-10-14T14:47:16.791Z,8.00
2022-10-14T14:49:25.908Z,11.27
2022-10-14T14:51:33.680Z,8.53
2022-10-14T14:53:35.356Z,7.30
2022-10-14T14:56:01.564Z,7.37
2022-10-14T14:58:05.398Z,7.07
2022-10-14T15:00:07.829Z,11.27
2022-10-14T15:02:27.939Z,8.40
2022-10-14T15:04:34.093Z,9.53
2022-10-14T15:06:36.471Z,6.43
2022-10-14T15:08:38.152Z,7.30
2022-10-14T15:10:48.320Z,6.87
2022-10-14T15:12:58.520Z,6.27
2022-10-14T15:15:04.712Z,6.67
2022-10-14T15:17:06.572Z,5.80
2022-10-14T15:19:23.134Z,7.37
2022-10-14T15:21:25.551Z,6.33
2022-10-14T15:23:48.783Z,7.80
2022-10-14T15:26:00.700Z,6.30
2022-10-14T15:28:03.024Z,5.73
2022-10-14T15:30:22.517Z,5.87
2022-10-14T15:32:25.995Z,4.73
2022-10-14T15:34:27.887Z,5.93
2022-10-14T15:36:32.539Z,3.47
2022-10-14T15:38:34.143Z,5.07
2022-10-14T15:40:36.015Z,4.67
2022-10-14T15:42:37.546Z,7.10
2022-10-14T15:44:39.051Z,4.20
2022-10-14T15:47:01.417Z,4.23
2022-10-14T15:49:15.604Z,6.37
2022-10-14T15:51:19.617Z,4.33
2022-10-14T15:53:21.174Z,5.43
2022-10-14T15:55:24.429Z,4.13
2022-10-14T15:57:26.556Z,3.53
2022-10-14T15:59:28.295Z,3.13
2022-10-14T16:01:29.994Z,3.80
2022-10-14T16:03:35.854Z,3.00
2022-10-14T16:05:40.781Z,3.23
2022-10-14T16:07:43.843Z,3.40
2022-10-14T16:09:45.401Z,4.13
2022-10-14T16:11:47.137Z,4.53
2022-10-14T16:13:48.700Z,5.27
2022-10-14T16:15:55.137Z,4.07
2022-10-14T16:17:56.766Z,7.63
2022-10-14T16:19:58.497Z,4.60
2022-10-14T16:22:00.028Z,4.23
2022-10-14T16:24:02.821Z,4.30
2022-10-14T16:26:04.456Z,5.43
2022-10-14T16:28:10.070Z,4.00
2022-10-14T16:30:12.350Z,3.43
2022-10-14T16:32:14.163Z,3.10
2022-10-14T16:34:17.395Z,3.57
2022-10-14T16:36:19.049Z,4.77
2022-10-14T16:38:20.736Z,3.10
2022-10-14T16:40:22.556Z,7.73
2022-10-14T16:42:24.169Z,3.90
2022-10-14T16:44:26.058Z,3.60
2022-10-14T16:46:47.567Z,4.20
2022-10-14T16:48:49.679Z,3.30
2022-10-14T16:50:53.121Z,3.30
2022-10-14T16:53:13.191Z,3.50
2022-10-14T16:55:14.799Z,4.70
2022-10-14T16:57:16.470Z,2.67
2022-10-14T16:59:18.334Z,4.37
2022-10-14T17:01:20.063Z,2.30
2022-10-14T17:03:21.718Z,4.27
2022-10-14T17:05:23.367Z,3.33
2022-10-14T17:07:24.959Z,3.07
2022-10-14T17:09:26.525Z,3.43
2022-10-14T17:11:29.305Z,2.63
2022-10-14T17:13:30.907Z,3.50
2022-10-14T17:15:32.471Z,3.63
2022-10-14T17:17:34.102Z,2.40
2022-10-14T17:19:35.877Z,3.57
2022-10-14T17:21:38.266Z,4.73
2022-10-14T17:23:42.423Z,3.73
2022-10-14T17:25:46.262Z,4.70
2022-10-14T17:27:47.960Z,2.97
2022-10-14T17:29:49.846Z,2.90
2022-10-14T17:31:51.583Z,4.80
2022-10-14T17:33:53.476Z,5.37
2022-10-14T17:35:59.439Z,4.80
2022-10-14T17:38:01.056Z,3.67
2022-10-14T17:40:03.757Z,4.47
2022-10-14T17:42:05.504Z,5.07
2022-10-14T17:44:07.399Z,4.53
2022-10-14T17:46:13.673Z,2.50
2022-10-14T17:48:16.950Z,1.90
2022-10-14T17:50:19.386Z,2.30
2022-10-14T17:52:21.345Z,5.50
2022-10-14T17:54:22.945Z,3.03
2022-10-14T17:56:25.736Z,3.33
2022-10-14T17:58:27.324Z,4.10
2022-10-14T18:00:29.688Z,2.17
2022-10-14T18:02:31.987Z,6.47
2022-10-14T18:04:33.796Z,2.97
2022-10-14T18:06:37.175Z,3.27
2022-10-14T18:08:40.345Z,2.53
2022-10-14T18:10:42.038Z,5.30
2022-10-14T18:12:43.656Z,3.20
2022-10-14T18:14:45.233Z,4.53
2022-10-14T18:16:47.815Z,3.03
2022-10-14T18:18:49.421Z,5.13
2022-10-14T18:20:57.115Z,2.07
2022-10-14T18:23:02.836Z,2.67
2022-10-14T18:25:06.762Z,1.90
2022-10-14T18:27:08.332Z,2.27
2022-10-14T18:29:10.018Z,6.57
2022-10-14T18:31:14.633Z,2.63
2022-10-14T18:33:16.186Z,5.57
2022-10-14T18:35:17.768Z,3.53
2022-10-14T18:37:19.393Z,3.03
2022-10-14T18:39:21.070Z,3.80
2022-10-14T18:41:23.844Z,3.43
2022-10-14T18:43:25.463Z,4.73
2022-10-14T18:45:27.037Z,3.63
2022-10-14T18:47:28.710Z,4.93
2022-10-14T18:49:30.426Z,2.77
2022-10-14T18:51:35.358Z,4.40
2022-10-14T18:53:39.032Z,3.43
2022-10-14T18:55:40.647Z,3.27
2022-10-14T18:57:42.287Z,7.10
2022-10-14T18:59:43.890Z,3.57
2022-10-14T19:01:46.742Z,3.07
2022-10-14T19:03:48.547Z,4.10
2022-10-14T19:05:51.500Z,2.50
2022-10-14T19:07:53.130Z,2.53
2022-10-14T19:09:57.124Z,2.57
2022-10-14T19:11:59.881Z,3.10
2022-10-14T19:14:03.863Z,4.70
2022-10-14T19:16:08.362Z,2.93
2022-10-14T19:18:11.698Z,3.87
2022-10-14T19:20:13.326Z,2.47
2022-10-14T19:22:14.955Z,4.30
2022-10-14T19:24:17.356Z,4.03
2022-10-14T19:26:21.953Z,3.30
2022-10-14T19:28:23.597Z,3.93
2022-10-14T19:30:25.995Z,5.83
2022-10-14T19:32:27.647Z,3.50
2022-10-14T19:34:29.380Z,4.20
2022-10-14T19:36:33.784Z,2.90
2022-10-14T19:38:37.615Z,3.20
2022-10-14T19:40:39.187Z,3.07
2022-10-14T19:42:40.784Z,3.50
2022-10-14T19:44:42.471Z,5.80
2022-10-14T19:46:44.671Z,2.17
2022-10-14T19:48:46.373Z,2.63
2022-10-14T19:50:48.119Z,2.53
2022-10-14T19:52:49.676Z,2.50
2022-10-14T19:54:51.280Z,2.93
2022-10-14T19:56:53.064Z,2.50
2022-10-14T19:58:56.905Z,2.50
2022-10-14T20:00:59.309Z,5.93
2022-10-14T20:03:00.976Z,2.60
2022-10-14T20:05:02.681Z,2.60
2022-10-14T20:07:04.366Z,3.40
2022-10-14T20:09:07.624Z,2.17
2022-10-14T20:11:11.298Z,2.40
2022-10-14T20:13:12.907Z,3.67
2022-10-14T20:15:14.511Z,3.50
2022-10-14T20:17:16.193Z,3.87
2022-10-14T20:19:17.942Z,2.50
2022-10-14T20:21:19.585Z,3.30
2022-10-14T20:23:21.346Z,3.20
2022-10-14T20:25:22.948Z,2.40
2022-10-14T20:27:24.866Z,2.30
2022-10-14T20:29:26.765Z,2.20
2022-10-14T20:31:28.599Z,1.90
2022-10-14T20:33:33.506Z,2.37
2022-10-14T20:35:35.902Z,2.20
2022-10-14T20:37:37.479Z,2.13
2022-10-14T20:39:39.077Z,1.87
2022-10-14T20:41:40.674Z,2.83
2022-10-14T20:43:43.546Z,2.77
2022-10-14T20:45:45.494Z,2.47
2022-10-14T20:47:53.454Z,2.07
2022-10-14T20:49:55.887Z,1.90
2022-10-14T20:51:57.510Z,2.70
2022-10-14T20:54:03.761Z,3.93
2022-10-14T20:56:09.888Z,2.07
2022-10-14T20:58:11.495Z,2.50
2022-10-14T21:00:13.724Z,3.20
2022-10-14T21:02:17.449Z,1.87
2022-10-14T21:04:19.051Z,2.37
2022-10-14T21:06:22.987Z,2.33
2022-10-14T21:08:24.589Z,3.00
2022-10-14T21:10:27.511Z,2.40
2022-10-14T21:12:29.147Z,2.47
2022-10-14T21:14:30.788Z,3.73
2022-10-14T21:16:34.752Z,3.53
2022-10-14T21:18:36.575Z,2.40
2022-10-14T21:20:38.477Z,2.17
2022-10-14T21:22:40.078Z,2.23
2022-10-14T21:24:41.847Z,2.13
2022-10-14T21:26:44.875Z,2.57
2022-10-14T21:28:46.621Z,2.10
2022-10-14T21:30:48.309Z,2.30
2022-10-14T21:32:49.932Z,2.30
2022-10-14T21:34:51.522Z,2.67
2022-10-14T21:36:53.171Z,2.07
2022-10-14T21:38:57.615Z,2.40
2022-10-14T21:41:01.092Z,2.00
2022-10-14T21:43:02.680Z,8.33
2022-10-14T21:45:04.631Z,2.27
2022-10-14T21:47:06.298Z,2.40
2022-10-14T21:49:10.645Z,2.50
2022-10-14T21:51:18.294Z,2.47
2022-10-14T21:53:19.889Z,2.00
2022-10-14T21:55:21.457Z,2.50
2022-10-14T21:57:23.244Z,2.70
2022-10-14T21:59:25.070Z,2.97
2022-10-14T22:01:29.171Z,2.50
2022-10-14T22:03:31.007Z,2.83
2022-10-14T22:05:34.552Z,2.50
2022-10-14T22:07:36.122Z,2.27
2022-10-14T22:09:37.736Z,2.67
2022-10-14T22:11:41.096Z,3.37
2022-10-14T22:13:42.814Z,2.40
2022-10-14T22:15:44.499Z,3.97
2022-10-14T22:17:46.078Z,4.50
2022-10-14T22:19:47.672Z,4.93
2022-10-14T22:21:50.250Z,3.30
2022-10-14T22:23:52.366Z,3.20
2022-10-14T22:25:53.948Z,2.60
2022-10-14T22:27:55.600Z,2.77
2022-10-14T22:29:57.210Z,3.10
2022-10-14T22:31:58.832Z,2.80
2022-10-14T22:34:02.405Z,4.07
2022-10-14T22:36:20.839Z,4.13
2022-10-14T22:38:25.219Z,2.20
2022-10-14T22:40:26.819Z,2.20
2022-10-14T22:44:30.883Z,2.60
2022-10-14T22:46:34.923Z,2.87
2022-10-14T22:48:37.027Z,2.10
2022-10-14T22:50:38.620Z,2.17
2022-10-14T22:52:40.270Z,4.30
2022-10-14T22:54:42.249Z,4.43
2022-10-14T22:56:43.802Z,2.60
2022-10-14T22:58:45.430Z,3.83
2022-10-14T23:00:47.436Z,3.37
2022-10-14T23:02:49.049Z,6.10
2022-10-14T23:04:50.651Z,3.87
2022-10-14T23:06:52.385Z,2.40
2022-10-14T23:08:54.659Z,4.67
2022-10-14T23:10:58.173Z,3.07
2022-10-14T23:12:59.840Z,4.23
2022-10-14T23:15:01.419Z,1.70
2022-10-14T23:17:03.747Z,2.83
2022-10-14T23:19:05.391Z,6.37
2022-10-14T23:21:14.930Z,2.10
2022-10-14T23:23:16.521Z,2.07
2022-10-14T23:25:18.348Z,3.53
2022-10-14T23:27:19.935Z,3.40
2022-10-14T23:29:21.539Z,1.90
2022-10-14T23:31:26.501Z,1.80
2022-10-14T23:33:28.115Z,2.10
2022-10-14T23:35:29.722Z,2.00
2022-10-14T23:37:31.315Z,4.23
2022-10-14T23:39:32.933Z,2.60
2022-10-14T23:41:34.778Z,2.37
2022-10-14T23:43:37.072Z,1.97
2022-10-14T23:45:38.901Z,5.43
2022-10-14T23:47:40.548Z,1.80
2022-10-14T23:49:42.117Z,1.80
2022-10-14T23:51:44.204Z,2.07
2022-10-14T23:53:45.868Z,3.27
2022-10-14T23:55:47.551Z,4.07
2022-10-14T23:57:49.205Z,3.10
2022-10-14T23:59:50.769Z,2.23
